TimeCST,TemperatureF,Dew PointF,Humidity,Sea Level PressureIn,VisibilityMPH,Wind Direction,Wind SpeedMPH,Gust SpeedMPH,PrecipitationIn,Events,Conditions,WindDirDegrees,DateUTC
12:53 AM,34.0,30.0,85,29.91,8.0,North,4.6,-,N/A,,Overcast,10,2012-12-19 06:53:00
1:53 AM,34.0,30.0,85,29.94,8.0,North,5.8,-,N/A,,Overcast,10,2012-12-19 07:53:00
2:53 AM,34.0,30.0,85,29.96,7.0,Calm,Calm,-,N/A,,Overcast,0,2012-12-19 08:53:00
3:53 AM,34.0,30.0,85,29.98,7.0,Calm,Calm,-,N/A,,Overcast,0,2012-12-19 09:53:00
4:53 AM,34.0,30.0,85,29.99,7.0,Calm,Calm,-,N/A,,Overcast,0,2012-12-19 10:53:00
5:53 AM,34.0,30.0,85,30.00,8.0,ENE,3.5,-,N/A,,Overcast,70,2012-12-19 11:53:00
6:53 AM,34.0,30.0,85,30.00,7.0,East,5.8,-,N/A,,Overcast,80,2012-12-19 12:53:00
7:46 AM,33.8,30.2,87,29.99,5.0,East,5.8,-,N/A,,Overcast,90,2012-12-19 13:46:00
7:53 AM,33.1,30.0,89,30.00,4.0,ENE,6.9,-,N/A,,Overcast,70,2012-12-19 13:53:00
8:53 AM,34.0,30.9,89,30.02,4.0,East,6.9,-,N/A,,Overcast,100,2012-12-19 14:53:00
9:31 AM,33.8,30.2,87,30.00,5.0,ESE,8.1,-,N/A,,Overcast,110,2012-12-19 15:31:00
9:53 AM,35.1,30.9,85,30.02,6.0,East,6.9,-,N/A,,Overcast,100,2012-12-19 15:53:00
10:53 AM,36.0,32.0,86,30.02,6.0,ESE,8.1,-,N/A,,Overcast,110,2012-12-19 16:53:00
11:38 AM,37.4,32.0,81,29.97,6.0,East,8.1,-,N/A,,Haze,100,2012-12-19 17:38:00
11:53 AM,37.0,32.0,82,29.99,7.0,ESE,9.2,-,N/A,,Overcast,110,2012-12-19 17:53:00
12:53 PM,37.9,32.0,79,29.96,7.0,East,9.2,-,N/A,,Mostly Cloudy,80,2012-12-19 18:53:00
1:53 PM,37.9,33.1,83,29.96,7.0,East,4.6,-,N/A,,Overcast,80,2012-12-19 19:53:00
2:53 PM,37.9,33.1,83,29.93,7.0,East,9.2,-,N/A,,Overcast,80,2012-12-19 20:53:00
3:53 PM,37.9,33.1,83,29.89,7.0,ENE,11.5,-,0.00,,Overcast,70,2012-12-19 21:53:00
4:53 PM,37.9,33.1,83,29.87,8.0,ENE,16.1,21.9,N/A,,Overcast,70,2012-12-19 22:53:00
5:53 PM,37.0,33.1,86,29.86,7.0,ENE,16.1,23.0,N/A,,Overcast,70,2012-12-19 23:53:00
6:32 PM,37.4,33.8,87,29.83,7.0,East,16.1,21.9,N/A,,Mostly Cloudy,80,2012-12-20 00:32:00
6:53 PM,37.0,34.0,89,29.82,6.0,East,15.0,21.9,N/A,,Overcast,80,2012-12-20 00:53:00
7:53 PM,37.0,35.1,93,29.78,5.0,East,15.0,25.3,0.01,Rain,Light Rain,80,2012-12-20 01:53:00
8:00 PM,37.4,35.6,93,29.76,5.0,East,12.7,-,0.00,Rain,Light Rain,80,2012-12-20 02:00:00
8:16 PM,37.4,35.6,93,29.77,3.0,ENE,15.0,-,0.03,Rain-Thunderstorm,Light Rain,60,2012-12-20 02:16:00
8:26 PM,37.4,35.6,93,29.77,2.0,ENE,9.2,21.9,0.09,Rain-Thunderstorm,Heavy Thunderstorms and Rain,60,2012-12-20 02:26:00
8:28 PM,37.4,35.6,93,29.77,2.0,ENE,12.7,19.6,0.10,Rain-Thunderstorm,Thunderstorms and Rain,60,2012-12-20 02:28:00
8:45 PM,37.4,35.6,93,29.76,1.5,ENE,12.7,-,0.26,Rain-Thunderstorm,Heavy Thunderstorms and Rain,70,2012-12-20 02:45:00
8:53 PM,37.0,36.0,96,29.75,2.0,ENE,12.7,-,0.29,Rain-Thunderstorm,Thunderstorms and Rain,70,2012-12-20 02:53:00
9:01 PM,37.4,35.6,93,29.73,2.0,ENE,13.8,-,0.03,Rain-Thunderstorm,Thunderstorms and Rain,70,2012-12-20 03:01:00
9:06 PM,37.4,35.6,93,29.72,2.0,ENE,16.1,-,0.07,Rain,Heavy Rain,70,2012-12-20 03:06:00
9:38 PM,37.4,35.6,93,29.68,2.0,ENE,16.1,24.2,0.12,Rain,Light Rain,70,2012-12-20 03:38:00
9:53 PM,37.0,36.0,96,29.68,2.0,ENE,17.3,23.0,0.12,Rain,Light Rain,70,2012-12-20 03:53:00
10:23 PM,37.4,-9999,N/A,29.62,3.0,East,17.3,26.5,0.01,Rain,Light Rain,80,2012-12-20 04:23:00
10:33 PM,37.4,-9999,N/A,29.59,2.5,ENE,20.7,27.6,0.02,Rain-Thunderstorm,Light Rain,70,2012-12-20 04:33:00
10:48 PM,37.4,-9999,N/A,29.59,3.0,East,15.0,26.5,0.05,Rain,Light Rain,80,2012-12-20 04:48:00
10:53 PM,37.9,-9999,N/A,29.61,3.0,East,15.0,25.3,0.05,Rain,Light Rain,80,2012-12-20 04:53:00
11:32 PM,37.4,-9999,N/A,29.63,3.0,North,10.4,-,0.04,Rain-Thunderstorm,Light Rain,350,2012-12-20 05:32:00
11:39 PM,37.4,-9999,N/A,29.62,2.0,North,10.4,-,0.09,Rain-Thunderstorm,Heavy Rain,350,2012-12-20 05:39:00
11:48 PM,37.4,-9999,N/A,29.58,2.0,ENE,12.7,-,0.12,Rain-Thunderstorm,Rain,70,2012-12-20 05:48:00
11:53 PM,37.9,-9999,N/A,29.57,2.5,NE,17.3,23.0,0.13,Rain-Thunderstorm,Rain,50,2012-12-20 05:53:00
11:55 PM,37.4,-9999,N/A,29.56,3.0,NE,16.1,23.0,0.00,Rain-Thunderstorm,Light Rain,50,2012-12-20 05:55:00